Terminal Aerodrome Forecast
Issued by NWS

Home | Current Version | Previous Version | Graphics & Text | Print | Product List | Glossary On
Versions: 1 2 3 4 5 6 7 8 9 10 11 12 13 14 15 16 17 18 19
555
FTUS41 KCLE 101138
TAFFDY
TAF
KFDY 101138Z 1012/1112 26015G22KT 6SM -SHSN SCT015 OVC025
      TEMPO 1012/1016 1 1/2SM -SHSN OVC015
     FM101600 28015G25KT P6SM OVC025
      TEMPO 1016/1020 2SM -SHSN
     FM110500 28010KT P6SM BKN035=

USA.gov is the U.S. government's official web portal to all federal, state and local government web resources and services.